createdAt,value
2023-04-10T07:29:39.485Z,11.30
2023-04-10T07:32:06.725Z,14.70
2023-04-10T07:34:33.543Z,15.10
2023-04-10T07:37:00.265Z,14.80
2023-04-10T07:39:27.465Z,14.60
2023-04-10T07:41:55.104Z,14.70
2023-04-10T07:44:21.940Z,14.90
2023-04-10T07:46:48.978Z,15.20
2023-04-10T07:49:15.662Z,15.20
2023-04-10T07:51:42.342Z,15.40
2023-04-10T07:54:08.941Z,15.60
2023-04-10T07:56:35.799Z,16.00
2023-04-10T07:59:03.236Z,16.10
2023-04-10T08:01:29.862Z,16.30
2023-04-10T08:03:56.729Z,16.50
2023-04-10T08:06:26.655Z,16.00
2023-04-10T08:08:53.565Z,15.90
2023-04-10T08:11:29.161Z,16.10
2023-04-10T08:13:58.303Z,16.00
2023-04-10T08:16:26.235Z,15.90
2023-04-10T08:18:54.407Z,16.30
2023-04-10T08:21:22.353Z,16.80
2023-04-10T08:23:53.280Z,16.90
2023-04-10T08:26:21.431Z,17.20
2023-04-10T08:28:53.192Z,17.10
2023-04-10T08:31:21.791Z,17.20
2023-04-10T08:33:48.875Z,16.90
2023-04-10T08:36:19.005Z,16.10
2023-04-10T08:43:43.463Z,16.00
2023-04-10T10:40:41.880Z,16.00
2023-04-10T10:43:24.219Z,20.30
2023-04-10T10:45:57.174Z,20.20
2023-04-10T10:48:23.873Z,20.20
2023-04-10T10:50:52.178Z,20.50
2023-04-10T10:53:44.383Z,21.10
2023-04-10T10:58:48.911Z,20.90
2023-04-10T11:01:16.602Z,20.60
2023-04-10T11:03:46.451Z,19.90
2023-04-10T11:06:19.471Z,19.50
2023-04-10T11:08:53.022Z,19.30
2023-04-10T11:11:24.956Z,19.30
2023-04-10T11:13:57.545Z,19.60
2023-04-10T11:16:31.453Z,20.20
2023-04-10T11:19:12.974Z,20.80
2023-04-10T11:22:15.650Z,21.40
2023-04-10T11:24:58.966Z,22.10
2023-04-10T11:27:39.277Z,22.20
2023-04-10T11:30:25.613Z,23.10
2023-04-10T11:32:52.348Z,22.70
2023-04-10T11:35:20.081Z,22.70
2023-04-10T11:37:47.112Z,22.40
2023-04-10T11:40:14.897Z,22.60
2023-04-10T11:42:41.522Z,22.80
2023-04-10T11:45:27.760Z,22.20
2023-04-10T11:47:55.222Z,21.60
2023-04-10T11:50:22.061Z,21.60
2023-04-10T11:52:51.007Z,21.40
2023-04-10T11:55:18.003Z,20.80
2023-04-10T11:57:45.978Z,20.70
2023-04-10T12:00:22.602Z,20.60
2023-04-10T12:02:52.551Z,20.20
2023-04-10T12:05:19.953Z,20.50
2023-04-10T12:07:48.338Z,21.40
2023-04-10T12:10:15.268Z,21.50
2023-04-10T12:12:42.109Z,21.00
2023-04-10T12:15:28.500Z,20.00
2023-04-10T12:17:56.348Z,19.40
2023-04-10T12:20:26.508Z,19.30
2023-04-10T12:22:56.301Z,18.90
2023-04-10T12:25:23.040Z,18.60
2023-04-10T12:27:51.630Z,18.50
2023-04-10T12:30:18.366Z,18.50
2023-04-10T12:35:18.596Z,18.80
2023-04-10T12:37:49.313Z,19.10
2023-04-10T12:40:16.285Z,19.10
2023-04-10T12:42:43.090Z,18.80
2023-04-10T12:45:13.439Z,18.40
2023-04-10T12:47:48.484Z,18.50
2023-04-10T12:50:20.850Z,18.40
2023-04-10T12:55:29.618Z,18.60
